NCAR-RAP Real-Time Weather Data

Output produced by METARs form (10 April 2020  05:12 UTC)
found at http://weather.rap.ucar.edu/surface/
 
KTYS 100453Z 25008KT 10SM SCT110 12/M01 A2982 RMK AO2 SLP092 T01171011 402170117